createdAt,value
2023-05-05T00:02:49.120Z,0
2023-05-05T00:08:05.291Z,0
2023-05-05T00:13:22.201Z,0
2023-05-05T00:18:38.411Z,0
2023-05-05T00:23:57.082Z,0
2023-05-05T00:29:13.820Z,0
2023-05-05T00:34:30.706Z,0
2023-05-05T00:39:45.961Z,0
2023-05-05T00:45:02.824Z,0
2023-05-05T00:50:19.531Z,0
2023-05-05T00:55:35.808Z,0
2023-05-05T01:00:51.244Z,0
2023-05-05T01:06:07.638Z,0
2023-05-05T01:11:22.971Z,0
2023-05-05T01:16:40.415Z,0
2023-05-05T01:21:57.165Z,0
2023-05-05T01:27:13.554Z,0
2023-05-05T01:32:31.407Z,0
2023-05-05T01:37:47.332Z,0
2023-05-05T01:43:04.594Z,0
2023-05-05T01:48:21.812Z,0
2023-05-05T01:53:38.190Z,0
2023-05-05T01:58:55.332Z,0
2023-05-05T02:04:11.971Z,0
2023-05-05T02:09:28.180Z,0
2023-05-05T02:14:44.944Z,0
2023-05-05T02:20:02.086Z,0
2023-05-05T02:25:18.165Z,0
2023-05-05T02:30:34.004Z,0
2023-05-05T02:35:52.105Z,0
2023-05-05T02:41:08.202Z,0
2023-05-05T02:46:25.070Z,0
2023-05-05T02:51:41.686Z,0
2023-05-05T02:56:59.203Z,0
2023-05-05T03:02:15.693Z,0
2023-05-05T03:07:34.695Z,0
2023-05-05T03:12:51.995Z,0
2023-05-05T03:16:14.117Z,0
2023-05-05T03:21:29.241Z,0
2023-05-05T03:26:46.656Z,0
2023-05-05T03:32:03.313Z,1
2023-05-05T03:37:20.228Z,3
2023-05-05T03:42:36.569Z,8
2023-05-05T03:47:54.738Z,17
2023-05-05T03:53:11.957Z,27
2023-05-05T03:58:30.135Z,49
2023-05-05T04:03:46.870Z,68
2023-05-05T04:09:03.621Z,87
2023-05-05T04:14:19.292Z,118
2023-05-05T04:19:35.235Z,145
2023-05-05T04:24:51.089Z,178
2023-05-05T04:30:09.419Z,246
2023-05-05T04:35:25.298Z,440
2023-05-05T04:40:41.009Z,384
2023-05-05T04:45:57.408Z,419
2023-05-05T04:51:14.747Z,584
2023-05-05T04:56:31.289Z,599
2023-05-05T05:01:50.408Z,520
2023-05-05T05:07:06.808Z,543
2023-05-05T05:12:23.400Z,552
2023-05-05T05:17:40.694Z,624
2023-05-05T05:22:57.028Z,724
2023-05-05T05:28:12.971Z,803
2023-05-05T05:33:29.669Z,942
2023-05-05T05:38:45.259Z,1101
2023-05-05T05:44:01.155Z,1099
2023-05-05T05:49:18.383Z,1062
2023-05-05T05:54:34.267Z,1044
2023-05-05T05:59:51.609Z,1041
2023-05-05T06:05:08.663Z,1110
2023-05-05T06:10:28.839Z,1204
2023-05-05T06:15:41.930Z,1299
2023-05-05T06:20:58.057Z,1233
2023-05-05T06:26:14.915Z,1344
2023-05-05T06:31:30.949Z,1456
2023-05-05T06:36:47.517Z,1519
2023-05-05T06:42:02.996Z,1414
2023-05-05T06:47:20.519Z,1522
2023-05-05T06:52:37.592Z,1697
2023-05-05T06:57:55.061Z,1754
2023-05-05T07:03:12.692Z,2034
2023-05-05T07:08:29.199Z,2097
2023-05-05T07:13:45.132Z,2111
2023-05-05T07:19:01.507Z,2231
2023-05-05T07:24:17.347Z,2349
2023-05-05T07:29:34.757Z,2288
2023-05-05T07:34:52.045Z,2299
2023-05-05T07:40:09.688Z,2363
2023-05-05T07:45:24.617Z,2290
2023-05-05T07:50:41.548Z,2222
2023-05-05T07:55:58.782Z,2388
2023-05-05T08:01:14.029Z,2564
2023-05-05T08:06:29.411Z,2797
2023-05-05T08:11:45.440Z,2812
2023-05-05T08:17:00.840Z,2743
2023-05-05T08:22:16.830Z,2548
2023-05-05T08:27:34.040Z,2499
2023-05-05T08:32:50.165Z,2511
2023-05-05T08:38:05.716Z,2617
2023-05-05T08:43:21.866Z,2549
2023-05-05T08:48:38.077Z,2546
2023-05-05T08:53:54.432Z,2546
2023-05-05T08:59:11.332Z,2443
2023-05-05T09:04:28.205Z,2446
2023-05-05T09:09:43.744Z,2187
2023-05-05T09:14:59.665Z,1994
2023-05-05T09:20:14.972Z,2058
2023-05-05T09:25:31.137Z,1951
2023-05-05T09:30:46.650Z,2054
2023-05-05T09:36:02.244Z,2207
2023-05-05T09:41:18.100Z,2299
2023-05-05T09:46:34.182Z,2441
2023-05-05T09:51:52.187Z,2304
2023-05-05T09:57:07.791Z,2401
2023-05-05T10:02:24.145Z,2532
2023-05-05T10:07:40.420Z,2869
2023-05-05T10:12:58.066Z,3305
2023-05-05T10:18:14.767Z,3103
2023-05-05T10:23:31.561Z,2485
2023-05-05T10:28:48.666Z,2913
2023-05-05T10:34:06.591Z,3503
2023-05-05T10:39:22.813Z,2998
2023-05-05T10:44:39.425Z,3213
2023-05-05T10:49:56.702Z,3608
2023-05-05T10:55:13.237Z,3489
2023-05-05T11:00:28.922Z,3809
2023-05-05T11:05:45.004Z,3809
2023-05-05T11:11:01.417Z,4047
2023-05-05T11:16:16.819Z,4192
2023-05-05T11:21:32.770Z,4893
2023-05-05T11:26:47.612Z,5286
2023-05-05T11:32:03.710Z,4762
2023-05-05T11:37:19.367Z,4110
2023-05-05T11:42:35.151Z,4593
2023-05-05T11:47:53.255Z,4266
2023-05-05T11:53:09.057Z,4002
2023-05-05T11:58:26.149Z,4296
2023-05-05T12:03:43.999Z,4251
2023-05-05T12:09:00.267Z,3815
2023-05-05T12:14:15.280Z,3672
2023-05-05T12:19:32.192Z,2895
2023-05-05T12:24:49.561Z,2347
2023-05-05T12:30:05.350Z,2052
2023-05-05T12:35:21.355Z,1360
2023-05-05T12:40:37.059Z,1189
2023-05-05T12:45:54.334Z,1346
2023-05-05T13:28:12.996Z,2010
2023-05-05T13:33:22.481Z,2357
2023-05-05T13:38:39.697Z,2923
2023-05-05T13:43:57.608Z,3365
2023-05-05T13:49:13.548Z,3726
2023-05-05T13:54:29.328Z,3352
2023-05-05T13:59:46.010Z,3620
2023-05-05T14:05:01.426Z,3282
2023-05-05T14:10:18.355Z,3191
2023-05-05T14:15:35.801Z,3577
2023-05-05T14:20:52.819Z,3788
2023-05-05T14:26:09.486Z,3489
2023-05-05T14:31:27.652Z,3158
2023-05-05T14:36:44.844Z,2623
2023-05-05T14:42:02.649Z,2552
2023-05-05T14:47:18.348Z,2165
2023-05-05T14:52:34.534Z,1962
2023-05-05T14:57:51.459Z,1757
2023-05-05T15:03:08.581Z,1641
2023-05-05T15:08:23.605Z,1466
2023-05-05T15:13:39.392Z,1620
2023-05-05T15:18:55.714Z,1707
2023-05-05T15:24:15.001Z,577
2023-05-05T15:29:31.087Z,534
2023-05-05T15:34:50.798Z,258
2023-05-05T15:40:07.612Z,372
2023-05-05T15:45:24.003Z,532
2023-05-05T15:50:39.642Z,445
2023-05-05T15:55:57.074Z,227
2023-05-05T16:01:14.490Z,273
2023-05-05T16:06:31.236Z,350
2023-05-05T16:11:48.721Z,462
2023-05-05T16:17:05.220Z,322
2023-05-05T16:22:22.521Z,373
2023-05-05T16:27:39.943Z,459
2023-05-05T17:15:17.299Z,722
2023-05-05T17:20:26.966Z,565
2023-05-05T17:25:44.322Z,1015
2023-05-05T17:31:00.888Z,3791
2023-05-05T17:36:19.204Z,958
2023-05-05T17:41:35.447Z,1340
2023-05-05T17:46:50.805Z,1264
2023-05-05T17:52:07.308Z,651
2023-05-05T17:57:23.208Z,356
2023-05-05T18:02:38.988Z,189
2023-05-05T18:07:55.281Z,145
2023-05-05T18:13:11.561Z,112
2023-05-05T18:18:26.188Z,116
2023-05-05T18:23:42.427Z,114
2023-05-05T18:28:59.027Z,89
2023-05-05T18:34:17.121Z,70
2023-05-05T18:39:34.050Z,83
2023-05-05T18:44:49.860Z,337
2023-05-05T18:50:07.318Z,103
2023-05-05T18:55:23.724Z,93
2023-05-05T19:00:40.438Z,58
2023-05-05T19:05:58.237Z,28
2023-05-05T19:11:15.310Z,15
2023-05-05T19:16:31.350Z,6
2023-05-05T19:21:47.840Z,3
2023-05-05T19:27:05.140Z,2
2023-05-05T19:32:23.194Z,1
2023-05-05T19:37:39.970Z,1
2023-05-05T19:42:55.413Z,0
2023-05-05T19:48:12.363Z,0
2023-05-05T19:53:29.119Z,0
2023-05-05T19:58:49.148Z,0
2023-05-05T20:04:04.792Z,0
2023-05-05T20:46:23.666Z,0
2023-05-05T20:51:33.054Z,0
2023-05-05T20:56:48.770Z,0
2023-05-05T21:02:05.855Z,0
2023-05-05T21:07:22.336Z,0
2023-05-05T21:12:37.768Z,0
2023-05-05T21:17:54.882Z,0
2023-05-05T21:23:10.477Z,0
2023-05-05T21:28:28.315Z,0
2023-05-05T21:33:45.233Z,0
2023-05-05T21:39:03.138Z,0
2023-05-05T21:44:18.527Z,0
2023-05-05T21:49:34.007Z,0
2023-05-05T21:54:50.847Z,0
2023-05-05T22:00:08.673Z,0
2023-05-05T22:05:25.373Z,0
2023-05-05T22:10:42.651Z,0
2023-05-05T22:15:58.568Z,0
2023-05-05T22:21:13.369Z,0
2023-05-05T22:26:30.837Z,0
2023-05-05T22:31:47.031Z,0
2023-05-05T22:37:03.776Z,0
2023-05-05T22:42:20.343Z,0
2023-05-05T22:47:37.409Z,0
2023-05-05T22:52:53.320Z,0
2023-05-05T22:58:10.519Z,0
2023-05-05T23:03:26.492Z,0
2023-05-05T23:08:42.995Z,0
2023-05-05T23:14:00.811Z,0
2023-05-05T23:19:17.058Z,0
2023-05-05T23:24:35.276Z,0
2023-05-05T23:29:50.671Z,0
2023-05-05T23:35:07.080Z,0
2023-05-05T23:40:22.497Z,0
2023-05-05T23:45:38.841Z,0
2023-05-05T23:50:54.151Z,0
